createdAt,value
2022-08-08T00:00:53.941Z,1024.11
2022-08-08T00:01:08.088Z,1024.11
2022-08-08T00:02:03.200Z,1024.08
2022-08-08T00:02:49.449Z,1024.09
2022-08-08T00:03:49.897Z,1024.03
2022-08-08T00:04:53.128Z,1024.07
2022-08-08T00:06:03.325Z,1024.05
2022-08-08T00:06:50.908Z,1024.07
2022-08-08T00:07:51.256Z,1024.02
2022-08-08T00:08:51.606Z,1024.05
2022-08-08T00:09:52.334Z,1024.10
2022-08-08T00:10:52.317Z,1024.10
2022-08-08T00:12:07.214Z,1024.10
2022-08-08T00:12:56.308Z,1024.08
2022-08-08T00:14:17.313Z,1024.09
2022-08-08T00:14:59.553Z,1024.02
2022-08-08T00:15:56.487Z,1024.00
2022-08-08T00:16:54.511Z,1024.04
2022-08-08T00:18:03.733Z,1024.02
2022-08-08T00:18:55.194Z,1024.02
2022-08-08T00:19:55.546Z,1023.99
2022-08-08T00:20:55.999Z,1024.01
2022-08-08T00:21:56.290Z,1024.04
2022-08-08T00:22:56.671Z,1024.01
2022-08-08T00:23:57.002Z,1023.99
2022-08-08T00:24:57.377Z,1023.99
2022-08-08T00:25:57.746Z,1023.97
2022-08-08T00:26:58.155Z,1023.96
2022-08-08T00:27:58.510Z,1023.97
2022-08-08T00:28:58.867Z,1023.92
2022-08-08T00:29:59.222Z,1023.95
2022-08-08T00:31:00.649Z,1023.99
2022-08-08T00:32:34.237Z,1023.92
2022-08-08T00:33:00.324Z,1023.92
2022-08-08T00:34:18.617Z,1023.93
2022-08-08T00:35:04.311Z,1023.94
2022-08-08T00:36:01.405Z,1023.91
2022-08-08T00:37:03.348Z,1023.92
2022-08-08T00:38:02.942Z,1023.94
2022-08-08T00:39:02.475Z,1023.96
2022-08-08T00:41:06.674Z,1023.92
2022-08-08T00:41:17.664Z,1023.97
2022-08-08T00:42:09.160Z,1023.95
2022-08-08T00:43:11.832Z,1023.97
2022-08-08T00:44:04.330Z,1023.97
2022-08-08T00:45:04.616Z,1023.98
2022-08-08T00:46:04.968Z,1023.95
2022-08-08T00:47:19.534Z,1023.98
2022-08-08T00:48:06.396Z,1024.02
2022-08-08T00:49:21.994Z,1023.99
2022-08-08T00:50:06.390Z,1023.99
2022-08-08T00:51:06.749Z,1024.01
2022-08-08T00:52:07.098Z,1024.00
2022-08-08T00:53:15.661Z,1024.01
2022-08-08T00:54:15.979Z,1024.04
2022-08-08T00:55:08.159Z,1024.00
2022-08-08T00:56:11.179Z,1024.00
2022-08-08T00:57:08.885Z,1024.00
2022-08-08T00:58:12.685Z,1024.01
2022-08-08T00:59:09.667Z,1024.00
2022-08-08T01:00:10.663Z,1024.00
2022-08-08T01:01:10.457Z,1023.97
2022-08-08T01:02:34.633Z,1024.01
2022-08-08T01:04:04.540Z,1024.00
2022-08-08T01:04:11.738Z,1023.99
2022-08-08T01:05:11.659Z,1024.00
2022-08-08T01:06:12.008Z,1023.99
2022-08-08T01:07:12.363Z,1024.03
2022-08-08T01:08:12.718Z,1023.98
2022-08-08T01:09:36.159Z,1024.03
2022-08-08T01:10:13.449Z,1023.99
2022-08-08T01:11:13.781Z,1023.96
2022-08-08T01:12:14.172Z,1024.02
2022-08-08T01:13:14.977Z,1023.95
2022-08-08T01:14:16.586Z,1023.96
2022-08-08T01:15:26.176Z,1023.95
2022-08-08T01:16:16.896Z,1023.92
2022-08-08T01:17:17.640Z,1023.97
2022-08-08T01:18:50.594Z,1023.95
2022-08-08T01:19:41.876Z,1024.00
2022-08-08T01:20:17.175Z,1023.95
2022-08-08T01:22:07.399Z,1023.98
2022-08-08T01:22:23.382Z,1023.94
2022-08-08T01:24:03.225Z,1023.96
2022-08-08T01:24:18.535Z,1023.95
2022-08-08T01:25:18.847Z,1023.94
2022-08-08T01:26:19.213Z,1023.98
2022-08-08T01:27:24.050Z,1023.97
2022-08-08T01:28:19.912Z,1024.00
2022-08-08T01:29:24.003Z,1023.97
2022-08-08T01:30:20.870Z,1023.98
2022-08-08T01:32:14.740Z,1023.96
2022-08-08T01:32:21.580Z,1023.98
2022-08-08T01:33:27.648Z,1024.00
2022-08-08T01:34:22.112Z,1023.97
2022-08-08T01:35:29.584Z,1024.00
2022-08-08T01:36:23.139Z,1024.00
2022-08-08T01:37:56.194Z,1024.01
2022-08-08T01:38:23.545Z,1024.00
2022-08-08T01:39:27.849Z,1023.97
2022-08-08T01:40:24.270Z,1023.96
2022-08-08T01:41:24.619Z,1024.00
2022-08-08T01:42:35.923Z,1023.96
2022-08-08T01:43:25.354Z,1024.01
2022-08-08T01:44:26.328Z,1023.95
2022-08-08T01:45:26.048Z,1023.94
2022-08-08T01:46:27.178Z,1024.02
2022-08-08T01:48:15.542Z,1023.98
2022-08-08T01:48:35.141Z,1023.95
2022-08-08T01:49:37.456Z,1023.99
2022-08-08T01:50:34.173Z,1023.98
2022-08-08T01:51:31.872Z,1023.97
2022-08-08T01:53:01.186Z,1023.99
2022-08-08T01:55:25.724Z,1023.95
2022-08-08T01:56:34.499Z,1023.98
2022-08-08T01:56:46.776Z,1024.05
2022-08-08T01:58:12.032Z,1024.02
2022-08-08T01:58:47.099Z,1024.03
2022-08-08T02:00:03.134Z,1024.01
2022-08-08T02:00:43.722Z,1024.02
2022-08-08T02:01:59.682Z,1024.03
2022-08-08T02:02:44.700Z,1024.00
2022-08-08T02:03:56.182Z,1024.00
2022-08-08T02:04:45.111Z,1023.97
2022-08-08T02:05:55.901Z,1023.99
2022-08-08T02:06:45.818Z,1023.98
2022-08-08T02:07:48.767Z,1023.95
2022-08-08T02:08:47.224Z,1023.96
2022-08-08T02:10:03.880Z,1023.94
2022-08-08T02:10:47.345Z,1023.93
2022-08-08T02:11:58.918Z,1023.99
2022-08-08T02:12:47.947Z,1023.97
2022-08-08T02:13:54.598Z,1023.93
2022-08-08T02:14:55.714Z,1023.92
2022-08-08T02:15:49.035Z,1023.93
2022-08-08T02:16:49.386Z,1023.90
2022-08-08T02:17:50.447Z,1023.89
2022-08-08T02:18:50.136Z,1023.90
2022-08-08T02:20:07.476Z,1023.89
2022-08-08T02:21:02.805Z,1023.91
2022-08-08T02:21:51.311Z,1023.90
2022-08-08T02:22:54.870Z,1023.92
2022-08-08T02:23:54.621Z,1023.93
2022-08-08T02:24:52.334Z,1023.94
2022-08-08T02:25:52.662Z,1023.91
2022-08-08T02:26:57.976Z,1023.89
2022-08-08T02:27:53.417Z,1023.94
2022-08-08T02:28:53.746Z,1023.95
2022-08-08T02:29:54.693Z,1023.93
2022-08-08T02:30:58.297Z,1023.93
2022-08-08T02:32:01.100Z,1023.98
2022-08-08T02:32:55.187Z,1023.95
2022-08-08T02:34:08.777Z,1023.99
2022-08-08T02:35:10.540Z,1023.98
2022-08-08T02:36:04.306Z,1024.02
2022-08-08T02:36:56.653Z,1024.02
2022-08-08T02:37:58.323Z,1024.06
2022-08-08T02:38:57.410Z,1024.09
2022-08-08T02:40:00.090Z,1024.03
2022-08-08T02:40:58.809Z,1024.11
2022-08-08T02:42:05.716Z,1024.08
2022-08-08T02:44:34.719Z,1024.04
2022-08-08T02:44:56.259Z,1024.06
2022-08-08T02:45:03.746Z,1024.07
2022-08-08T02:45:59.971Z,1024.04
2022-08-08T02:47:00.273Z,1024.04
2022-08-08T02:48:00.861Z,1024.07
2022-08-08T02:49:01.070Z,1024.05
2022-08-08T02:50:01.370Z,1024.07
2022-08-08T02:51:01.742Z,1024.03
2022-08-08T02:52:32.362Z,1024.05
2022-08-08T02:53:02.458Z,1024.10
2022-08-08T02:54:02.856Z,1024.09
2022-08-08T02:55:03.207Z,1024.12
2022-08-08T02:56:03.598Z,1024.12
2022-08-08T02:57:05.061Z,1024.09
2022-08-08T02:58:04.264Z,1024.10
2022-08-08T02:59:17.312Z,1024.15
2022-08-08T03:00:29.759Z,1024.09
2022-08-08T03:01:05.449Z,1024.11
2022-08-08T03:02:05.762Z,1024.14
2022-08-08T03:03:07.930Z,1024.12
2022-08-08T03:05:04.803Z,1024.12
2022-08-08T03:05:14.100Z,1024.09
2022-08-08T03:06:07.416Z,1024.11
2022-08-08T03:07:07.584Z,1024.16
2022-08-08T03:08:07.976Z,1024.13
2022-08-08T03:09:08.181Z,1024.15
2022-08-08T03:10:08.473Z,1024.17
2022-08-08T03:11:13.943Z,1024.16
2022-08-08T03:12:14.004Z,1024.14
2022-08-08T03:15:53.995Z,1024.17
2022-08-08T03:16:06.943Z,1024.18
2022-08-08T03:16:12.267Z,1024.26
2022-08-08T03:17:12.531Z,1024.19
2022-08-08T03:18:13.618Z,1024.22
2022-08-08T03:19:12.799Z,1024.24
2022-08-08T03:20:13.053Z,1024.27
2022-08-08T03:21:14.815Z,1024.22
2022-08-08T03:22:38.484Z,1024.25
2022-08-08T03:23:14.466Z,1024.24
2022-08-08T03:24:13.830Z,1024.24
2022-08-08T03:25:17.884Z,1024.21
2022-08-08T03:26:14.129Z,1024.23
2022-08-08T03:27:14.399Z,1024.22
2022-08-08T03:28:18.976Z,1024.24
2022-08-08T03:29:18.728Z,1024.21
2022-08-08T03:30:19.162Z,1024.20
2022-08-08T03:31:24.854Z,1024.23
2022-08-08T03:32:15.755Z,1024.19
2022-08-08T03:33:56.290Z,1024.26
2022-08-08T03:34:16.214Z,1024.24
2022-08-08T03:35:16.383Z,1024.23
2022-08-08T03:36:19.971Z,1024.27
2022-08-08T03:37:59.261Z,1024.26
2022-08-08T03:39:07.369Z,1024.27
2022-08-08T03:39:19.152Z,1024.26
2022-08-08T03:40:29.515Z,1024.31
2022-08-08T03:42:11.598Z,1024.31
2022-08-08T03:42:31.038Z,1024.30
2022-08-08T03:43:20.137Z,1024.29
2022-08-08T03:44:18.416Z,1024.29
2022-08-08T03:46:07.065Z,1024.31
2022-08-08T03:46:18.810Z,1024.30
2022-08-08T03:47:20.222Z,1024.35
2022-08-08T03:48:21.295Z,1024.35
2022-08-08T03:49:57.709Z,1024.34
2022-08-08T03:50:20.436Z,1024.33
2022-08-08T03:51:40.278Z,1024.35
2022-08-08T03:52:20.206Z,1024.32
2022-08-08T03:53:24.037Z,1024.36
2022-08-08T03:54:52.557Z,1024.35
2022-08-08T03:55:57.537Z,1024.36
2022-08-08T03:56:31.902Z,1024.37
2022-08-08T03:58:35.843Z,1024.36
2022-08-08T03:58:47.772Z,1024.39
2022-08-08T03:59:22.555Z,1024.37
2022-08-08T04:00:21.858Z,1024.33
2022-08-08T04:01:24.515Z,1024.38
2022-08-08T04:02:36.705Z,1024.37
2022-08-08T04:03:57.574Z,1024.41
2022-08-08T04:04:23.161Z,1024.39
2022-08-08T04:05:28.241Z,1024.41
2022-08-08T04:06:23.112Z,1024.46
2022-08-08T04:07:23.244Z,1024.43
2022-08-08T04:08:32.871Z,1024.43
2022-08-08T04:09:24.226Z,1024.45
2022-08-08T04:10:23.779Z,1024.46
2022-08-08T04:11:25.527Z,1024.42
2022-08-08T04:12:24.177Z,1024.44
2022-08-08T04:13:24.301Z,1024.43
2022-08-08T04:14:35.629Z,1024.42
2022-08-08T04:15:24.764Z,1024.45
2022-08-08T04:16:38.383Z,1024.42
2022-08-08T04:17:46.552Z,1024.47
2022-08-08T04:18:25.305Z,1024.44
2022-08-08T04:19:25.669Z,1024.44
2022-08-08T04:20:28.816Z,1024.41
2022-08-08T04:21:25.834Z,1024.47
2022-08-08T04:22:26.010Z,1024.48
2022-08-08T04:23:26.179Z,1024.43
2022-08-08T04:24:30.687Z,1024.44
2022-08-08T04:25:29.724Z,1024.39
2022-08-08T04:26:26.750Z,1024.43
2022-08-08T04:28:03.171Z,1024.43
2022-08-08T04:28:41.563Z,1024.46
2022-08-08T04:29:37.047Z,1024.44
2022-08-08T04:30:27.450Z,1024.46
2022-08-08T04:31:56.933Z,1024.44
2022-08-08T04:32:30.572Z,1024.43
2022-08-08T04:33:28.007Z,1024.45
2022-08-08T04:34:39.276Z,1024.40
2022-08-08T04:35:29.453Z,1024.39
2022-08-08T04:36:28.626Z,1024.36
2022-08-08T04:37:32.258Z,1024.44
2022-08-08T04:38:28.911Z,1024.41
2022-08-08T04:40:03.736Z,1024.40
2022-08-08T04:40:29.319Z,1024.39
2022-08-08T04:41:35.800Z,1024.44
2022-08-08T04:42:29.883Z,1024.43
2022-08-08T04:43:31.926Z,1024.45
2022-08-08T04:44:30.052Z,1024.37
2022-08-08T04:45:30.220Z,1024.43
2022-08-08T04:46:31.066Z,1024.46
2022-08-08T04:47:30.554Z,1024.46
2022-08-08T04:48:30.752Z,1024.44
2022-08-08T04:49:59.075Z,1024.47
2022-08-08T04:50:38.670Z,1024.44
2022-08-08T04:51:55.231Z,1024.43
2022-08-08T04:52:33.598Z,1024.47
2022-08-08T04:54:37.471Z,1024.47
2022-08-08T04:54:46.261Z,1024.44
2022-08-08T04:55:47.132Z,1024.45
2022-08-08T04:56:32.367Z,1024.45
2022-08-08T04:57:34.185Z,1024.47
2022-08-08T04:58:33.365Z,1024.52
2022-08-08T04:59:32.875Z,1024.52
2022-08-08T05:00:33.060Z,1024.55
2022-08-08T05:01:35.602Z,1024.53
2022-08-08T05:02:33.831Z,1024.59
2022-08-08T05:04:11.082Z,1024.53
2022-08-08T05:04:33.796Z,1024.48
2022-08-08T05:05:44.554Z,1024.58
2022-08-08T05:06:36.533Z,1024.57
2022-08-08T05:07:41.854Z,1024.55
2022-08-08T05:08:34.524Z,1024.57
2022-08-08T05:09:36.224Z,1024.58
2022-08-08T05:10:34.887Z,1024.61
2022-08-08T05:11:38.907Z,1024.63
2022-08-08T05:12:42.749Z,1024.60
2022-08-08T05:13:35.449Z,1024.61
2022-08-08T05:14:35.640Z,1024.59
2022-08-08T05:16:53.188Z,1024.58
2022-08-08T05:17:02.259Z,1024.61
2022-08-08T05:17:53.675Z,1024.57
2022-08-08T05:18:36.409Z,1024.59
2022-08-08T05:20:11.366Z,1024.61
2022-08-08T05:20:40.550Z,1024.64
2022-08-08T05:21:43.437Z,1024.68
2022-08-08T05:22:37.161Z,1024.54
2022-08-08T05:23:41.069Z,1024.57
2022-08-08T05:24:37.770Z,1024.55
2022-08-08T05:25:41.342Z,1024.56
2022-08-08T05:26:37.914Z,1024.59
2022-08-08T05:27:41.354Z,1024.60
2022-08-08T05:28:48.175Z,1024.53
2022-08-08T05:29:38.441Z,1024.60
2022-08-08T05:30:38.639Z,1024.57
2022-08-08T05:32:03.657Z,1024.53
2022-08-08T05:32:39.348Z,1024.56
2022-08-08T05:33:44.216Z,1024.58
2022-08-08T05:34:39.385Z,1024.54
2022-08-08T05:35:39.827Z,1024.57
2022-08-08T05:36:39.721Z,1024.55
2022-08-08T05:37:52.731Z,1024.59
2022-08-08T05:38:40.113Z,1024.63
2022-08-08T05:39:40.338Z,1024.58
2022-08-08T05:40:40.438Z,1024.59
2022-08-08T05:41:55.057Z,1024.56
2022-08-08T05:42:40.842Z,1024.61
2022-08-08T05:44:03.964Z,1024.63
2022-08-08T05:44:41.194Z,1024.60
2022-08-08T05:45:52.899Z,1024.65
2022-08-08T05:46:41.525Z,1024.62
2022-08-08T05:47:59.951Z,1024.62
2022-08-08T05:48:42.579Z,1024.63
2022-08-08T05:49:42.152Z,1024.64
2022-08-08T05:50:42.294Z,1024.62
2022-08-08T05:51:48.760Z,1024.65
2022-08-08T05:52:42.791Z,1024.65
2022-08-08T05:54:24.179Z,1024.64
2022-08-08T05:54:50.907Z,1024.67
2022-08-08T05:56:07.775Z,1024.69
2022-08-08T05:56:47.014Z,1024.68
2022-08-08T05:58:03.820Z,1024.70
2022-08-08T05:58:57.982Z,1024.70
2022-08-08T05:59:59.217Z,1024.67
2022-08-08T06:00:44.454Z,1024.69
2022-08-08T06:01:52.777Z,1024.68
2022-08-08T06:02:48.173Z,1024.68
2022-08-08T06:03:44.714Z,1024.67
2022-08-08T06:04:47.720Z,1024.68
2022-08-08T06:05:45.060Z,1024.71
2022-08-08T06:06:48.200Z,1024.70
2022-08-08T06:07:46.072Z,1024.72
2022-08-08T06:08:53.317Z,1024.69
2022-08-08T06:09:59.683Z,1024.72
2022-08-08T06:10:45.993Z,1024.76
2022-08-08T06:11:46.802Z,1024.75
2022-08-08T06:12:46.407Z,1024.75
2022-08-08T06:13:47.319Z,1024.74
2022-08-08T06:14:47.719Z,1024.77
2022-08-08T06:15:51.228Z,1024.75
2022-08-08T06:16:47.161Z,1024.75
2022-08-08T06:17:51.129Z,1024.77
2022-08-08T06:18:47.541Z,1024.77
2022-08-08T06:19:47.723Z,1024.80
2022-08-08T06:20:50.269Z,1024.82
2022-08-08T06:21:48.915Z,1024.84
2022-08-08T06:22:49.391Z,1024.86
2022-08-08T06:24:02.327Z,1024.86
2022-08-08T06:24:51.294Z,1024.88
2022-08-08T06:26:35.907Z,1024.85
2022-08-08T06:26:50.339Z,1024.80
2022-08-08T06:27:49.252Z,1024.84
2022-08-08T06:28:49.435Z,1024.85
2022-08-08T06:29:59.863Z,1024.84
2022-08-08T06:30:49.819Z,1024.86
2022-08-08T06:32:10.778Z,1024.87
2022-08-08T06:32:52.620Z,1024.90
2022-08-08T06:34:25.806Z,1024.91
2022-08-08T06:34:56.316Z,1024.89
2022-08-08T06:36:08.052Z,1024.92
2022-08-08T06:36:53.498Z,1024.91
2022-08-08T06:37:51.158Z,1024.90
2022-08-08T06:38:51.327Z,1024.93
2022-08-08T06:39:56.296Z,1024.94
2022-08-08T06:40:54.037Z,1024.98
2022-08-08T06:41:51.885Z,1024.94
2022-08-08T06:42:52.096Z,1024.98
2022-08-08T06:43:57.228Z,1024.98
2022-08-08T06:44:52.459Z,1024.96
2022-08-08T06:45:52.635Z,1024.95
2022-08-08T06:46:52.819Z,1024.94
2022-08-08T06:48:01.331Z,1024.93
2022-08-08T06:48:53.201Z,1024.98
2022-08-08T06:49:56.575Z,1024.98
2022-08-08T06:50:53.580Z,1024.92
2022-08-08T06:51:58.076Z,1024.96
2022-08-08T06:52:53.982Z,1024.99
2022-08-08T06:53:56.289Z,1024.96
2022-08-08T06:54:54.339Z,1024.95
2022-08-08T06:56:02.124Z,1024.96
2022-08-08T06:56:54.721Z,1024.96
2022-08-08T06:57:57.239Z,1024.97
2022-08-08T06:58:55.111Z,1024.93
2022-08-08T07:00:10.555Z,1024.94
2022-08-08T07:00:55.453Z,1024.95
2022-08-08T07:02:28.070Z,1024.96
2022-08-08T07:02:55.881Z,1024.97
2022-08-08T07:04:40.475Z,1025.00
2022-08-08T07:04:56.303Z,1024.94
2022-08-08T07:06:02.358Z,1024.97
2022-08-08T07:06:56.571Z,1025.05
2022-08-08T07:07:56.785Z,1025.05
2022-08-08T07:08:56.924Z,1025.05
2022-08-08T07:09:59.529Z,1025.04
2022-08-08T07:10:57.320Z,1025.05
2022-08-08T07:11:57.528Z,1025.07
2022-08-08T07:12:57.742Z,1025.05
2022-08-08T07:14:00.958Z,1025.03
2022-08-08T07:14:58.071Z,1024.97
2022-08-08T07:16:05.048Z,1025.03
2022-08-08T07:16:58.436Z,1025.00
2022-08-08T07:18:34.605Z,1025.06
2022-08-08T07:18:58.850Z,1025.05
2022-08-08T07:19:59.888Z,1025.03
2022-08-08T07:21:02.249Z,1025.01
2022-08-08T07:22:05.530Z,1025.09
2022-08-08T07:22:59.581Z,1025.03
2022-08-08T07:24:03.201Z,1025.05
2022-08-08T07:24:59.902Z,1025.05
2022-08-08T07:26:00.098Z,1025.10
2022-08-08T07:27:00.247Z,1025.07
2022-08-08T07:28:02.816Z,1025.07
2022-08-08T07:29:05.433Z,1025.07
2022-08-08T07:30:12.022Z,1025.12
2022-08-08T07:31:00.990Z,1025.15
2022-08-08T07:32:01.798Z,1025.16
2022-08-08T07:33:01.453Z,1025.11
2022-08-08T07:34:01.581Z,1025.14
2022-08-08T07:35:02.734Z,1025.10
2022-08-08T07:36:01.981Z,1025.15
2022-08-08T07:37:02.167Z,1025.13
2022-08-08T07:38:10.615Z,1025.12
2022-08-08T07:39:02.570Z,1025.10
2022-08-08T07:40:02.812Z,1025.17
2022-08-08T07:41:04.441Z,1025.14
2022-08-08T07:42:04.873Z,1025.13
2022-08-08T07:43:04.227Z,1025.15
2022-08-08T07:44:09.200Z,1025.13
2022-08-08T07:45:03.630Z,1025.15
2022-08-08T07:46:23.189Z,1025.14
2022-08-08T07:47:04.010Z,1025.12
2022-08-08T07:48:05.258Z,1025.13
2022-08-08T07:49:04.375Z,1025.12
2022-08-08T07:50:04.561Z,1025.09
2022-08-08T07:51:04.733Z,1025.08
2022-08-08T07:52:04.910Z,1025.09
2022-08-08T07:53:05.139Z,1025.12
2022-08-08T07:54:05.291Z,1025.11
2022-08-08T07:55:05.473Z,1025.10
2022-08-08T07:56:05.678Z,1025.12
2022-08-08T07:57:08.994Z,1025.11
2022-08-08T07:58:06.064Z,1025.12
2022-08-08T07:59:06.239Z,1025.12
2022-08-08T08:00:16.470Z,1025.11
2022-08-08T08:01:06.678Z,1025.14
2022-08-08T08:02:36.098Z,1025.14
2022-08-08T08:03:10.978Z,1025.18
2022-08-08T08:04:07.283Z,1025.17
2022-08-08T08:05:14.353Z,1025.15
2022-08-08T08:06:07.633Z,1025.20
2022-08-08T08:07:07.821Z,1025.18
2022-08-08T08:08:08.033Z,1025.18
2022-08-08T08:09:08.191Z,1025.17
2022-08-08T08:10:08.371Z,1025.25
2022-08-08T08:11:08.559Z,1025.17
2022-08-08T08:12:08.740Z,1025.26
2022-08-08T08:13:08.972Z,1025.21
2022-08-08T08:14:10.602Z,1025.21
2022-08-08T08:15:09.327Z,1025.25
2022-08-08T08:16:09.501Z,1025.24
2022-08-08T08:17:09.689Z,1025.21
2022-08-08T08:18:14.127Z,1025.26
2022-08-08T08:19:10.134Z,1025.23
2022-08-08T08:20:10.324Z,1025.24
2022-08-08T08:21:18.746Z,1025.28
2022-08-08T08:22:10.627Z,1025.28
2022-08-08T08:23:10.860Z,1025.26
2022-08-08T08:24:11.001Z,1025.27
2022-08-08T08:25:11.166Z,1025.30
2022-08-08T08:26:11.345Z,1025.34
2022-08-08T08:27:11.538Z,1025.34
2022-08-08T08:28:21.287Z,1025.25
2022-08-08T08:29:13.912Z,1025.32
2022-08-08T08:30:12.122Z,1025.33
2022-08-08T08:31:12.269Z,1025.35
2022-08-08T08:32:12.450Z,1025.21
2022-08-08T08:33:12.652Z,1025.25
2022-08-08T08:34:12.816Z,1025.22
2022-08-08T08:35:15.192Z,1025.30
2022-08-08T08:36:18.917Z,1025.30
2022-08-08T08:37:15.483Z,1025.31
2022-08-08T08:38:17.391Z,1025.29
2022-08-08T08:39:17.343Z,1025.32
2022-08-08T08:40:14.062Z,1025.32
2022-08-08T08:41:17.016Z,1025.30
2022-08-08T08:42:14.313Z,1025.34
2022-08-08T08:43:16.981Z,1025.36
2022-08-08T08:44:15.493Z,1025.36
2022-08-08T08:45:23.077Z,1025.35
2022-08-08T08:46:15.104Z,1025.39
2022-08-08T08:47:15.178Z,1025.40
2022-08-08T08:48:16.423Z,1025.39
2022-08-08T08:49:15.562Z,1025.38
2022-08-08T08:50:31.840Z,1025.40
2022-08-08T08:51:15.975Z,1025.42
2022-08-08T08:52:16.136Z,1025.43
2022-08-08T08:53:55.068Z,1025.41
2022-08-08T08:54:16.495Z,1025.41
2022-08-08T08:55:16.691Z,1025.42
2022-08-08T08:56:23.772Z,1025.42
2022-08-08T08:57:17.561Z,1025.40
2022-08-08T08:58:17.239Z,1025.44
2022-08-08T08:59:22.126Z,1025.45
2022-08-08T09:00:19.244Z,1025.47
2022-08-08T09:01:17.834Z,1025.46
2022-08-08T09:02:18.079Z,1025.54
2022-08-08T09:03:19.360Z,1025.51
2022-08-08T09:04:30.081Z,1025.52
2022-08-08T09:05:49.108Z,1025.49
2022-08-08T09:06:26.173Z,1025.43
2022-08-08T09:07:18.912Z,1025.48
2022-08-08T09:08:20.840Z,1025.54
2022-08-08T09:09:35.143Z,1025.45
2022-08-08T09:10:19.506Z,1025.44
2022-08-08T09:11:19.647Z,1025.45
2022-08-08T09:12:20.266Z,1025.50
2022-08-08T09:13:27.935Z,1025.47
2022-08-08T09:14:20.230Z,1025.47
2022-08-08T09:15:40.930Z,1025.51
2022-08-08T09:16:20.603Z,1025.51
2022-08-08T09:17:31.526Z,1025.44
2022-08-08T09:18:21.011Z,1025.47
2022-08-08T09:21:58.543Z,1025.42
2022-08-08T09:22:09.727Z,1025.40
2022-08-08T09:22:25.790Z,1025.41
2022-08-08T09:23:17.695Z,1025.46
2022-08-08T09:24:16.199Z,1025.44
2022-08-08T09:25:15.924Z,1025.42
2022-08-08T09:26:16.215Z,1025.36
2022-08-08T09:27:20.881Z,1025.37
2022-08-08T09:28:35.447Z,1025.37
2022-08-08T09:29:22.520Z,1025.36
2022-08-08T09:30:17.306Z,1025.37
2022-08-08T09:31:17.133Z,1025.37
2022-08-08T09:32:17.326Z,1025.35
2022-08-08T09:34:06.284Z,1025.41
2022-08-08T09:34:37.669Z,1025.38
2022-08-08T09:35:17.937Z,1025.41
2022-08-08T09:36:19.183Z,1025.40
2022-08-08T09:37:34.079Z,1025.38
2022-08-08T09:38:18.544Z,1025.42
2022-08-08T09:39:19.366Z,1025.44
2022-08-08T09:40:20.279Z,1025.35
2022-08-08T09:41:19.188Z,1025.36
2022-08-08T09:42:21.643Z,1025.39
2022-08-08T09:43:24.222Z,1025.43
2022-08-08T09:44:33.701Z,1025.43
2022-08-08T09:45:54.481Z,1025.48
2022-08-08T09:46:25.195Z,1025.48
2022-08-08T09:47:25.803Z,1025.47
2022-08-08T09:48:26.947Z,1025.60
2022-08-08T09:49:42.441Z,1025.49
2022-08-08T09:50:22.575Z,1025.48
2022-08-08T09:51:21.192Z,1025.51
2022-08-08T09:52:56.369Z,1025.47
2022-08-08T09:53:31.838Z,1025.50
2022-08-08T09:54:37.646Z,1025.45
2022-08-08T09:55:31.600Z,1025.50
2022-08-08T09:56:25.304Z,1025.52
2022-08-08T09:57:37.929Z,1025.51
2022-08-08T09:58:27.788Z,1025.48
2022-08-08T10:00:49.601Z,1025.52
2022-08-08T10:01:59.167Z,1025.50
2022-08-08T10:02:23.522Z,1025.51
2022-08-08T10:03:23.560Z,1025.46
2022-08-08T10:04:41.423Z,1025.48
2022-08-08T10:05:25.738Z,1025.46
2022-08-08T10:06:26.869Z,1025.47
2022-08-08T10:07:25.833Z,1025.45
2022-08-08T10:08:24.590Z,1025.45
2022-08-08T10:09:24.775Z,1025.44
2022-08-08T10:10:31.608Z,1025.46
2022-08-08T10:12:27.071Z,1025.44
2022-08-08T10:12:52.970Z,1025.44
2022-08-08T10:13:29.925Z,1025.43
2022-08-08T10:14:27.779Z,1025.46
2022-08-08T10:15:26.062Z,1025.43
2022-08-08T10:16:26.863Z,1025.46
2022-08-08T10:17:30.291Z,1025.45
2022-08-08T10:18:26.961Z,1025.44
2022-08-08T10:19:26.820Z,1025.47
2022-08-08T10:20:44.650Z,1025.49
2022-08-08T10:21:28.515Z,1025.47
2022-08-08T10:22:27.643Z,1025.46
2022-08-08T10:23:41.621Z,1025.40
2022-08-08T10:24:28.823Z,1025.46
2022-08-08T10:25:28.084Z,1025.41
2022-08-08T10:26:30.484Z,1025.40
2022-08-08T10:27:28.753Z,1025.37
2022-08-08T10:28:28.719Z,1025.42
2022-08-08T10:29:34.114Z,1025.39
2022-08-08T10:31:00.135Z,1025.45
2022-08-08T10:31:47.345Z,1025.41
2022-08-08T10:32:29.519Z,1025.42
2022-08-08T10:33:38.489Z,1025.43
2022-08-08T10:34:29.931Z,1025.43
2022-08-08T10:36:08.437Z,1025.39
2022-08-08T10:36:31.007Z,1025.37
2022-08-08T10:37:30.616Z,1025.37
2022-08-08T10:38:31.608Z,1025.35
2022-08-08T10:39:31.745Z,1025.35
2022-08-08T10:40:32.383Z,1025.36
2022-08-08T10:41:35.644Z,1025.38
2022-08-08T10:42:31.943Z,1025.35
2022-08-08T10:43:32.142Z,1025.32
2022-08-08T10:44:31.895Z,1025.35
2022-08-08T10:45:39.005Z,1025.38
2022-08-08T10:46:32.317Z,1025.42
2022-08-08T10:47:43.212Z,1025.36
2022-08-08T10:48:34.983Z,1025.46
2022-08-08T10:50:01.871Z,1025.41
2022-08-08T10:50:33.163Z,1025.42
2022-08-08T10:51:40.928Z,1025.43
2022-08-08T10:52:33.750Z,1025.40
2022-08-08T10:53:56.675Z,1025.43
2022-08-08T10:54:37.512Z,1025.41
2022-08-08T10:55:39.347Z,1025.34
2022-08-08T10:56:35.222Z,1025.36
2022-08-08T10:57:49.513Z,1025.32
2022-08-08T10:58:34.857Z,1025.35
2022-08-08T10:59:39.572Z,1025.34
2022-08-08T11:00:48.721Z,1025.35
2022-08-08T11:01:35.502Z,1025.33
2022-08-08T11:02:35.729Z,1025.33
2022-08-08T11:03:36.303Z,1025.37
2022-08-08T11:04:39.027Z,1025.38
2022-08-08T11:05:39.044Z,1025.39
2022-08-08T11:06:36.460Z,1025.36
2022-08-08T11:08:30.131Z,1025.36
2022-08-08T11:08:42.935Z,1025.32
2022-08-08T11:09:37.100Z,1025.38
2022-08-08T11:10:37.294Z,1025.36
2022-08-08T11:12:05.537Z,1025.39
2022-08-08T11:12:38.387Z,1025.38
2022-08-08T11:13:37.896Z,1025.38
2022-08-08T11:14:38.183Z,1025.34
2022-08-08T11:16:00.276Z,1025.35
2022-08-08T11:16:38.479Z,1025.34
2022-08-08T11:17:58.182Z,1025.36
2022-08-08T11:18:38.868Z,1025.34
2022-08-08T11:19:39.083Z,1025.34
2022-08-08T11:20:39.325Z,1025.32
2022-08-08T11:21:39.545Z,1025.36
2022-08-08T11:22:39.692Z,1025.39
2022-08-08T11:23:39.915Z,1025.42
2022-08-08T11:24:40.082Z,1025.37
2022-08-08T11:25:55.319Z,1025.35
2022-08-08T11:26:53.884Z,1025.41
2022-08-08T11:27:40.679Z,1025.38
2022-08-08T11:28:40.891Z,1025.33
2022-08-08T11:29:51.480Z,1025.34
2022-08-08T11:30:50.251Z,1025.35
2022-08-08T11:31:46.900Z,1025.28
2022-08-08T11:32:41.797Z,1025.29
2022-08-08T11:33:51.290Z,1025.29
2022-08-08T11:35:08.015Z,1025.28
2022-08-08T11:35:43.509Z,1025.29
2022-08-08T11:36:42.544Z,1025.34
2022-08-08T11:38:39.427Z,1025.34
2022-08-08T11:38:54.069Z,1025.34
2022-08-08T11:39:43.223Z,1025.32
2022-08-08T11:40:43.340Z,1025.31
2022-08-08T11:41:43.549Z,1025.30
2022-08-08T11:42:43.716Z,1025.25
2022-08-08T11:43:43.887Z,1025.28
2022-08-08T11:44:44.096Z,1025.36
2022-08-08T11:46:09.184Z,1025.29
2022-08-08T11:46:44.517Z,1025.32
2022-08-08T11:48:02.948Z,1025.36
2022-08-08T11:48:47.137Z,1025.32
2022-08-08T11:49:45.155Z,1025.34
2022-08-08T11:50:45.357Z,1025.32
2022-08-08T11:51:50.366Z,1025.33
2022-08-08T11:52:48.102Z,1025.33
2022-08-08T11:53:51.636Z,1025.36
2022-08-08T11:54:46.446Z,1025.45
2022-08-08T11:55:46.313Z,1025.32
2022-08-08T11:56:46.494Z,1025.27
2022-08-08T11:57:46.737Z,1025.24
2022-08-08T11:58:46.914Z,1025.29
2022-08-08T11:59:58.840Z,1025.27
2022-08-08T12:00:47.364Z,1025.24
2022-08-08T12:01:47.547Z,1025.31
2022-08-08T12:02:48.249Z,1025.29
2022-08-08T12:03:48.004Z,1025.42
2022-08-08T12:04:48.129Z,1025.37
2022-08-08T12:05:48.373Z,1025.27
2022-08-08T12:06:48.704Z,1025.50
2022-08-08T12:07:49.652Z,1025.35
2022-08-08T12:08:48.897Z,1025.31
2022-08-08T12:09:59.699Z,1025.31
2022-08-08T12:10:49.366Z,1025.25
2022-08-08T12:11:49.735Z,1025.22